sensor_id;sensor_type;location;lat;lon;timestamp;P1;durP1;ratioP1;P2;durP2;ratioP2
3131;SDS011;62090;52.330;9.104;2022-08-21T00:01:09;8.00;;;3.57;;
3131;SDS011;62090;52.330;9.104;2022-08-21T00:03:42;5.60;;;2.87;;
3131;SDS011;62090;52.330;9.104;2022-08-21T00:06:11;5.40;;;2.70;;
3131;SDS011;62090;52.330;9.104;2022-08-21T00:08:42;4.80;;;2.90;;
3131;SDS011;62090;52.330;9.104;2022-08-21T00:11:12;10.50;;;3.40;;
3131;SDS011;62090;52.330;9.104;2022-08-21T00:13:44;5.93;;;3.00;;
3131;SDS011;62090;52.330;9.104;2022-08-21T00:16:14;9.77;;;3.80;;
3131;SDS011;62090;52.330;9.104;2022-08-21T00:18:44;9.83;;;3.70;;
3131;SDS011;62090;52.330;9.104;2022-08-21T00:21:14;10.60;;;4.13;;
3131;SDS011;62090;52.330;9.104;2022-08-21T00:23:44;7.93;;;3.70;;
3131;SDS011;62090;52.330;9.104;2022-08-21T00:26:14;9.40;;;4.03;;
3131;SDS011;62090;52.330;9.104;2022-08-21T00:28:46;7.70;;;3.57;;
3131;SDS011;62090;52.330;9.104;2022-08-21T00:31:16;9.97;;;6.03;;
3131;SDS011;62090;52.330;9.104;2022-08-21T00:33:47;8.77;;;4.33;;
3131;SDS011;62090;52.330;9.104;2022-08-21T00:36:16;12.37;;;4.63;;
3131;SDS011;62090;52.330;9.104;2022-08-21T00:38:46;10.07;;;3.40;;
3131;SDS011;62090;52.330;9.104;2022-08-21T00:41:16;7.00;;;3.30;;
3131;SDS011;62090;52.330;9.104;2022-08-21T00:44:06;18.33;;;3.47;;
3131;SDS011;62090;52.330;9.104;2022-08-21T00:46:38;9.83;;;3.70;;
3131;SDS011;62090;52.330;9.104;2022-08-21T00:49:11;9.90;;;5.43;;
3131;SDS011;62090;52.330;9.104;2022-08-21T00:51:43;8.00;;;2.80;;
3131;SDS011;62090;52.330;9.104;2022-08-21T00:54:16;6.17;;;3.33;;
3131;SDS011;62090;52.330;9.104;2022-08-21T00:56:48;6.03;;;2.40;;
3131;SDS011;62090;52.330;9.104;2022-08-21T00:59:27;8.67;;;4.23;;
3131;SDS011;62090;52.330;9.104;2022-08-21T01:02:02;18.57;;;5.50;;
3131;SDS011;62090;52.330;9.104;2022-08-21T01:04:33;10.80;;;6.07;;
3131;SDS011;62090;52.330;9.104;2022-08-21T01:07:04;14.20;;;6.80;;
3131;SDS011;62090;52.330;9.104;2022-08-21T01:09:34;15.20;;;7.73;;
3131;SDS011;62090;52.330;9.104;2022-08-21T01:12:05;13.87;;;7.40;;
3131;SDS011;62090;52.330;9.104;2022-08-21T01:14:38;12.37;;;5.97;;
3131;SDS011;62090;52.330;9.104;2022-08-21T01:17:10;13.47;;;5.80;;
3131;SDS011;62090;52.330;9.104;2022-08-21T01:19:42;10.97;;;6.03;;
3131;SDS011;62090;52.330;9.104;2022-08-21T01:22:14;8.07;;;5.07;;
3131;SDS011;62090;52.330;9.104;2022-08-21T01:24:45;12.13;;;3.80;;
3131;SDS011;62090;52.330;9.104;2022-08-21T01:27:16;8.30;;;3.70;;
3131;SDS011;62090;52.330;9.104;2022-08-21T01:29:48;7.23;;;4.27;;
3131;SDS011;62090;52.330;9.104;2022-08-21T01:32:24;8.00;;;3.93;;
3131;SDS011;62090;52.330;9.104;2022-08-21T01:34:54;6.70;;;3.73;;
3131;SDS011;62090;52.330;9.104;2022-08-21T01:37:26;8.60;;;4.10;;
3131;SDS011;62090;52.330;9.104;2022-08-21T01:39:56;7.43;;;3.77;;
3131;SDS011;62090;52.330;9.104;2022-08-21T01:42:25;8.87;;;3.40;;
3131;SDS011;62090;52.330;9.104;2022-08-21T01:44:55;8.23;;;3.97;;
3131;SDS011;62090;52.330;9.104;2022-08-21T01:47:25;6.17;;;3.43;;
3131;SDS011;62090;52.330;9.104;2022-08-21T01:49:55;7.20;;;3.50;;
3131;SDS011;62090;52.330;9.104;2022-08-21T01:52:28;13.40;;;3.60;;
3131;SDS011;62090;52.330;9.104;2022-08-21T01:54:58;13.40;;;4.17;;
3131;SDS011;62090;52.330;9.104;2022-08-21T01:57:27;10.97;;;4.00;;
3131;SDS011;62090;52.330;9.104;2022-08-21T01:59:57;6.10;;;3.87;;
3131;SDS011;62090;52.330;9.104;2022-08-21T02:02:37;5.90;;;4.07;;
3131;SDS011;62090;52.330;9.104;2022-08-21T02:05:09;11.40;;;4.87;;
3131;SDS011;62090;52.330;9.104;2022-08-21T02:07:43;8.73;;;4.27;;
3131;SDS011;62090;52.330;9.104;2022-08-21T02:10:16;14.20;;;4.30;;
3131;SDS011;62090;52.330;9.104;2022-08-21T02:12:47;12.53;;;4.40;;
3131;SDS011;62090;52.330;9.104;2022-08-21T02:15:17;13.37;;;4.47;;
3131;SDS011;62090;52.330;9.104;2022-08-21T02:17:48;8.70;;;3.83;;
3131;SDS011;62090;52.330;9.104;2022-08-21T02:20:22;8.43;;;3.50;;
3131;SDS011;62090;52.330;9.104;2022-08-21T02:22:56;4.53;;;2.93;;
3131;SDS011;62090;52.330;9.104;2022-08-21T02:25:27;3.53;;;2.90;;
3131;SDS011;62090;52.330;9.104;2022-08-21T02:27:58;9.10;;;4.33;;
3131;SDS011;62090;52.330;9.104;2022-08-21T02:30:32;9.07;;;3.97;;
3131;SDS011;62090;52.330;9.104;2022-08-21T02:33:06;9.97;;;3.30;;
3131;SDS011;62090;52.330;9.104;2022-08-21T02:35:37;8.00;;;3.43;;
3131;SDS011;62090;52.330;9.104;2022-08-21T02:38:12;7.93;;;3.50;;
3131;SDS011;62090;52.330;9.104;2022-08-21T02:40:44;12.00;;;3.80;;
3131;SDS011;62090;52.330;9.104;2022-08-21T02:43:16;13.30;;;4.13;;
3131;SDS011;62090;52.330;9.104;2022-08-21T02:45:47;8.63;;;3.70;;
3131;SDS011;62090;52.330;9.104;2022-08-21T02:48:19;9.00;;;4.47;;
3131;SDS011;62090;52.330;9.104;2022-08-21T02:50:53;5.43;;;3.27;;
3131;SDS011;62090;52.330;9.104;2022-08-21T02:53:27;8.33;;;3.60;;
3131;SDS011;62090;52.330;9.104;2022-08-21T02:55:59;14.00;;;3.83;;
3131;SDS011;62090;52.330;9.104;2022-08-21T02:58:32;9.00;;;3.83;;
3131;SDS011;62090;52.330;9.104;2022-08-21T03:01:05;7.47;;;3.63;;
3131;SDS011;62090;52.330;9.104;2022-08-21T03:03:36;8.57;;;4.17;;
3131;SDS011;62090;52.330;9.104;2022-08-21T03:06:07;7.40;;;3.60;;
3131;SDS011;62090;52.330;9.104;2022-08-21T03:08:42;7.30;;;3.60;;
3131;SDS011;62090;52.330;9.104;2022-08-21T03:11:13;6.90;;;3.47;;
3131;SDS011;62090;52.330;9.104;2022-08-21T03:13:46;10.20;;;3.73;;
3131;SDS011;62090;52.330;9.104;2022-08-21T03:16:16;9.53;;;4.27;;
3131;SDS011;62090;52.330;9.104;2022-08-21T03:18:47;7.30;;;3.60;;
3131;SDS011;62090;52.330;9.104;2022-08-21T03:21:17;9.40;;;3.80;;
3131;SDS011;62090;52.330;9.104;2022-08-21T03:23:49;5.50;;;3.30;;
3131;SDS011;62090;52.330;9.104;2022-08-21T03:26:20;7.60;;;3.33;;
3131;SDS011;62090;52.330;9.104;2022-08-21T03:28:50;7.23;;;3.30;;
3131;SDS011;62090;52.330;9.104;2022-08-21T03:31:20;6.80;;;3.43;;
3131;SDS011;62090;52.330;9.104;2022-08-21T03:33:50;4.83;;;2.50;;
3131;SDS011;62090;52.330;9.104;2022-08-21T03:36:21;10.60;;;2.87;;
3131;SDS011;62090;52.330;9.104;2022-08-21T03:38:53;8.43;;;3.17;;
3131;SDS011;62090;52.330;9.104;2022-08-21T03:41:23;9.60;;;3.70;;
3131;SDS011;62090;52.330;9.104;2022-08-21T03:43:53;6.13;;;2.90;;
3131;SDS011;62090;52.330;9.104;2022-08-21T03:46:22;7.93;;;3.30;;
3131;SDS011;62090;52.330;9.104;2022-08-21T03:48:52;7.40;;;3.10;;
3131;SDS011;62090;52.330;9.104;2022-08-21T03:51:22;5.80;;;3.33;;
3131;SDS011;62090;52.330;9.104;2022-08-21T03:53:54;6.73;;;3.73;;
3131;SDS011;62090;52.330;9.104;2022-08-21T03:56:24;6.57;;;2.77;;
3131;SDS011;62090;52.330;9.104;2022-08-21T03:58:54;7.03;;;2.67;;
3131;SDS011;62090;52.330;9.104;2022-08-21T04:01:24;11.33;;;2.93;;
3131;SDS011;62090;52.330;9.104;2022-08-21T04:03:54;7.10;;;3.13;;
3131;SDS011;62090;52.330;9.104;2022-08-21T04:06:24;8.13;;;2.63;;
3131;SDS011;62090;52.330;9.104;2022-08-21T04:08:56;7.07;;;3.23;;
3131;SDS011;62090;52.330;9.104;2022-08-21T04:11:26;7.63;;;3.90;;
3131;SDS011;62090;52.330;9.104;2022-08-21T04:13:55;7.43;;;3.43;;
3131;SDS011;62090;52.330;9.104;2022-08-21T04:16:25;12.43;;;4.30;;
3131;SDS011;62090;52.330;9.104;2022-08-21T04:18:55;8.10;;;3.30;;
3131;SDS011;62090;52.330;9.104;2022-08-21T04:21:24;7.00;;;3.50;;
3131;SDS011;62090;52.330;9.104;2022-08-21T04:23:57;6.93;;;3.87;;
3131;SDS011;62090;52.330;9.104;2022-08-21T04:26:27;12.07;;;3.90;;
3131;SDS011;62090;52.330;9.104;2022-08-21T04:28:57;6.73;;;3.63;;
3131;SDS011;62090;52.330;9.104;2022-08-21T04:31:27;10.93;;;3.60;;
3131;SDS011;62090;52.330;9.104;2022-08-21T04:33:57;10.47;;;3.63;;
3131;SDS011;62090;52.330;9.104;2022-08-21T04:36:26;14.73;;;3.67;;
3131;SDS011;62090;52.330;9.104;2022-08-21T04:38:59;9.63;;;3.73;;
3131;SDS011;62090;52.330;9.104;2022-08-21T04:41:30;6.47;;;3.43;;
3131;SDS011;62090;52.330;9.104;2022-08-21T04:44:00;5.90;;;3.57;;
3131;SDS011;62090;52.330;9.104;2022-08-21T04:46:29;8.50;;;3.27;;
3131;SDS011;62090;52.330;9.104;2022-08-21T04:48:59;4.90;;;2.77;;
3131;SDS011;62090;52.330;9.104;2022-08-21T04:51:29;6.80;;;3.40;;
3131;SDS011;62090;52.330;9.104;2022-08-21T04:54:06;6.27;;;3.17;;
3131;SDS011;62090;52.330;9.104;2022-08-21T04:56:41;7.53;;;2.87;;
3131;SDS011;62090;52.330;9.104;2022-08-21T04:59:14;14.13;;;3.10;;
3131;SDS011;62090;52.330;9.104;2022-08-21T05:01:47;8.10;;;2.73;;
3131;SDS011;62090;52.330;9.104;2022-08-21T05:04:18;8.27;;;3.43;;
3131;SDS011;62090;52.330;9.104;2022-08-21T05:06:52;7.03;;;3.20;;
3131;SDS011;62090;52.330;9.104;2022-08-21T05:09:26;16.63;;;4.40;;
3131;SDS011;62090;52.330;9.104;2022-08-21T05:11:57;6.83;;;3.87;;
3131;SDS011;62090;52.330;9.104;2022-08-21T05:14:27;12.20;;;4.40;;
3131;SDS011;62090;52.330;9.104;2022-08-21T05:16:56;11.30;;;4.67;;
3131;SDS011;62090;52.330;9.104;2022-08-21T05:19:26;11.03;;;4.03;;
3131;SDS011;62090;52.330;9.104;2022-08-21T05:21:56;10.00;;;4.90;;
3131;SDS011;62090;52.330;9.104;2022-08-21T05:24:29;13.23;;;4.90;;
3131;SDS011;62090;52.330;9.104;2022-08-21T05:26:59;12.80;;;4.83;;
3131;SDS011;62090;52.330;9.104;2022-08-21T05:29:30;15.57;;;5.53;;
3131;SDS011;62090;52.330;9.104;2022-08-21T05:31:59;8.67;;;4.77;;
3131;SDS011;62090;52.330;9.104;2022-08-21T05:34:29;15.03;;;5.47;;
3131;SDS011;62090;52.330;9.104;2022-08-21T05:36:59;12.60;;;5.23;;
3131;SDS011;62090;52.330;9.104;2022-08-21T05:39:35;12.47;;;5.47;;
3131;SDS011;62090;52.330;9.104;2022-08-21T05:42:25;16.27;;;5.03;;
3131;SDS011;62090;52.330;9.104;2022-08-21T05:44:55;15.43;;;4.67;;
3131;SDS011;62090;52.330;9.104;2022-08-21T05:47:25;21.43;;;5.70;;
3131;SDS011;62090;52.330;9.104;2022-08-21T05:49:55;9.17;;;4.73;;
3131;SDS011;62090;52.330;9.104;2022-08-21T05:52:24;11.97;;;4.67;;
3131;SDS011;62090;52.330;9.104;2022-08-21T05:54:57;12.63;;;4.70;;
3131;SDS011;62090;52.330;9.104;2022-08-21T05:57:26;15.47;;;5.07;;
3131;SDS011;62090;52.330;9.104;2022-08-21T05:59:56;10.73;;;4.80;;
3131;SDS011;62090;52.330;9.104;2022-08-21T06:02:26;13.23;;;4.40;;
3131;SDS011;62090;52.330;9.104;2022-08-21T06:04:57;16.60;;;5.63;;
3131;SDS011;62090;52.330;9.104;2022-08-21T06:07:26;15.53;;;5.03;;
3131;SDS011;62090;52.330;9.104;2022-08-21T06:09:59;15.80;;;5.67;;
3131;SDS011;62090;52.330;9.104;2022-08-21T06:12:28;13.47;;;4.63;;
3131;SDS011;62090;52.330;9.104;2022-08-21T06:14:58;15.37;;;5.10;;
3131;SDS011;62090;52.330;9.104;2022-08-21T06:17:28;11.20;;;5.23;;
3131;SDS011;62090;52.330;9.104;2022-08-21T06:19:57;14.53;;;5.20;;
3131;SDS011;62090;52.330;9.104;2022-08-21T06:22:27;16.63;;;5.97;;
3131;SDS011;62090;52.330;9.104;2022-08-21T06:25:00;22.80;;;8.23;;
3131;SDS011;62090;52.330;9.104;2022-08-21T06:27:29;14.30;;;6.07;;
3131;SDS011;62090;52.330;9.104;2022-08-21T06:29:59;17.67;;;8.23;;
3131;SDS011;62090;52.330;9.104;2022-08-21T06:32:29;24.97;;;7.17;;
3131;SDS011;62090;52.330;9.104;2022-08-21T06:34:58;14.83;;;7.33;;
3131;SDS011;62090;52.330;9.104;2022-08-21T06:37:28;11.73;;;6.63;;
3131;SDS011;62090;52.330;9.104;2022-08-21T06:40:01;12.50;;;6.57;;
3131;SDS011;62090;52.330;9.104;2022-08-21T06:42:37;19.67;;;6.10;;
3131;SDS011;62090;52.330;9.104;2022-08-21T06:45:09;11.20;;;6.07;;
3131;SDS011;62090;52.330;9.104;2022-08-21T06:47:39;19.20;;;6.80;;
3131;SDS011;62090;52.330;9.104;2022-08-21T06:50:09;19.33;;;6.10;;
3131;SDS011;62090;52.330;9.104;2022-08-21T06:52:39;13.70;;;5.60;;
3131;SDS011;62090;52.330;9.104;2022-08-21T06:55:11;17.23;;;6.23;;
3131;SDS011;62090;52.330;9.104;2022-08-21T06:57:49;16.00;;;5.40;;
3131;SDS011;62090;52.330;9.104;2022-08-21T07:00:19;16.57;;;5.60;;
3131;SDS011;62090;52.330;9.104;2022-08-21T07:02:48;12.07;;;6.47;;
3131;SDS011;62090;52.330;9.104;2022-08-21T07:05:18;15.70;;;5.83;;
3131;SDS011;62090;52.330;9.104;2022-08-21T07:07:48;9.00;;;4.70;;
3131;SDS011;62090;52.330;9.104;2022-08-21T07:10:21;12.90;;;4.63;;
3131;SDS011;62090;52.330;9.104;2022-08-21T07:12:52;13.67;;;4.73;;
3131;SDS011;62090;52.330;9.104;2022-08-21T07:15:27;14.53;;;4.40;;
3131;SDS011;62090;52.330;9.104;2022-08-21T07:17:58;13.47;;;4.30;;
3131;SDS011;62090;52.330;9.104;2022-08-21T07:20:28;10.47;;;4.13;;
3131;SDS011;62090;52.330;9.104;2022-08-21T07:22:59;11.03;;;4.07;;
3131;SDS011;62090;52.330;9.104;2022-08-21T07:25:34;11.77;;;3.20;;
3131;SDS011;62090;52.330;9.104;2022-08-21T07:28:04;10.60;;;2.97;;
3131;SDS011;62090;52.330;9.104;2022-08-21T07:30:34;15.27;;;3.50;;
3131;SDS011;62090;52.330;9.104;2022-08-21T07:33:03;15.80;;;3.60;;
3131;SDS011;62090;52.330;9.104;2022-08-21T07:35:33;16.57;;;3.20;;
3131;SDS011;62090;52.330;9.104;2022-08-21T07:38:03;12.10;;;3.27;;
3131;SDS011;62090;52.330;9.104;2022-08-21T07:40:35;12.80;;;3.17;;
3131;SDS011;62090;52.330;9.104;2022-08-21T07:43:05;13.20;;;3.70;;
3131;SDS011;62090;52.330;9.104;2022-08-21T07:45:35;15.30;;;3.47;;
3131;SDS011;62090;52.330;9.104;2022-08-21T07:48:05;11.60;;;2.83;;
3131;SDS011;62090;52.330;9.104;2022-08-21T07:50:34;13.73;;;3.10;;
3131;SDS011;62090;52.330;9.104;2022-08-21T07:53:05;12.73;;;2.93;;
3131;SDS011;62090;52.330;9.104;2022-08-21T07:55:38;6.17;;;2.70;;
3131;SDS011;62090;52.330;9.104;2022-08-21T07:58:08;10.33;;;2.90;;
3131;SDS011;62090;52.330;9.104;2022-08-21T08:00:37;12.37;;;3.00;;
3131;SDS011;62090;52.330;9.104;2022-08-21T08:03:08;7.10;;;2.60;;
3131;SDS011;62090;52.330;9.104;2022-08-21T08:05:38;7.63;;;2.30;;
3131;SDS011;62090;52.330;9.104;2022-08-21T08:08:07;13.90;;;3.00;;
3131;SDS011;62090;52.330;9.104;2022-08-21T08:10:40;8.30;;;3.00;;
3131;SDS011;62090;52.330;9.104;2022-08-21T08:13:11;6.93;;;2.80;;
3131;SDS011;62090;52.330;9.104;2022-08-21T08:15:41;12.20;;;3.20;;
3131;SDS011;62090;52.330;9.104;2022-08-21T08:18:11;13.23;;;2.60;;
3131;SDS011;62090;52.330;9.104;2022-08-21T08:20:42;11.57;;;5.53;;
3131;SDS011;62090;52.330;9.104;2022-08-21T08:23:13;8.83;;;2.33;;
3131;SDS011;62090;52.330;9.104;2022-08-21T08:25:46;7.20;;;2.27;;
3131;SDS011;62090;52.330;9.104;2022-08-21T08:28:18;12.70;;;2.70;;
3131;SDS011;62090;52.330;9.104;2022-08-21T08:30:48;9.80;;;2.60;;
3131;SDS011;62090;52.330;9.104;2022-08-21T08:33:20;12.33;;;3.20;;
3131;SDS011;62090;52.330;9.104;2022-08-21T08:35:51;11.00;;;2.73;;
3131;SDS011;62090;52.330;9.104;2022-08-21T08:38:22;8.50;;;2.70;;
3131;SDS011;62090;52.330;9.104;2022-08-21T08:40:58;9.20;;;3.20;;
3131;SDS011;62090;52.330;9.104;2022-08-21T08:43:32;19.20;;;3.30;;
3131;SDS011;62090;52.330;9.104;2022-08-21T08:46:04;13.17;;;3.03;;
3131;SDS011;62090;52.330;9.104;2022-08-21T08:48:47;10.70;;;2.70;;
3131;SDS011;62090;52.330;9.104;2022-08-21T08:51:21;14.83;;;2.47;;
3131;SDS011;62090;52.330;9.104;2022-08-21T08:53:57;8.73;;;2.40;;
3131;SDS011;62090;52.330;9.104;2022-08-21T08:56:33;6.63;;;1.90;;
3131;SDS011;62090;52.330;9.104;2022-08-21T08:59:05;12.83;;;2.43;;
3131;SDS011;62090;52.330;9.104;2022-08-21T09:01:41;9.17;;;2.10;;
3131;SDS011;62090;52.330;9.104;2022-08-21T09:04:12;13.43;;;2.87;;
3131;SDS011;62090;52.330;9.104;2022-08-21T09:06:51;11.23;;;4.10;;
3131;SDS011;62090;52.330;9.104;2022-08-21T09:09:30;11.27;;;2.73;;
3131;SDS011;62090;52.330;9.104;2022-08-21T09:12:14;5.70;;;2.60;;
3131;SDS011;62090;52.330;9.104;2022-08-21T09:14:52;13.40;;;2.50;;
3131;SDS011;62090;52.330;9.104;2022-08-21T09:17:36;12.13;;;2.93;;
3131;SDS011;62090;52.330;9.104;2022-08-21T09:20:16;10.90;;;2.37;;
3131;SDS011;62090;52.330;9.104;2022-08-21T09:22:56;7.83;;;2.43;;
3131;SDS011;62090;52.330;9.104;2022-08-21T09:25:38;6.90;;;2.30;;
3131;SDS011;62090;52.330;9.104;2022-08-21T09:28:17;8.27;;;2.60;;
3131;SDS011;62090;52.330;9.104;2022-08-21T09:30:47;6.50;;;2.57;;
3131;SDS011;62090;52.330;9.104;2022-08-21T09:33:19;14.10;;;2.50;;
3131;SDS011;62090;52.330;9.104;2022-08-21T09:35:51;11.57;;;2.83;;
3131;SDS011;62090;52.330;9.104;2022-08-21T09:38:25;9.57;;;2.40;;
3131;SDS011;62090;52.330;9.104;2022-08-21T09:41:01;11.47;;;2.80;;
3131;SDS011;62090;52.330;9.104;2022-08-21T09:43:36;7.63;;;2.33;;
3131;SDS011;62090;52.330;9.104;2022-08-21T09:46:08;10.33;;;2.10;;
3131;SDS011;62090;52.330;9.104;2022-08-21T09:48:41;9.90;;;2.10;;
3131;SDS011;62090;52.330;9.104;2022-08-21T09:51:14;7.53;;;2.10;;
3131;SDS011;62090;52.330;9.104;2022-08-21T09:53:46;8.37;;;3.30;;
3131;SDS011;62090;52.330;9.104;2022-08-21T09:56:20;6.93;;;2.30;;
3131;SDS011;62090;52.330;9.104;2022-08-21T09:59:24;10.63;;;3.07;;
3131;SDS011;62090;52.330;9.104;2022-08-21T10:02:03;14.10;;;3.00;;
3131;SDS011;62090;52.330;9.104;2022-08-21T10:04:51;11.60;;;2.47;;
3131;SDS011;62090;52.330;9.104;2022-08-21T10:07:23;11.63;;;2.80;;
3131;SDS011;62090;52.330;9.104;2022-08-21T10:10:03;10.83;;;2.03;;
3131;SDS011;62090;52.330;9.104;2022-08-21T10:12:38;8.07;;;1.97;;
3131;SDS011;62090;52.330;9.104;2022-08-21T10:15:18;17.60;;;3.20;;
3131;SDS011;62090;52.330;9.104;2022-08-21T10:17:55;9.90;;;2.57;;
3131;SDS011;62090;52.330;9.104;2022-08-21T10:20:34;15.00;;;3.40;;
3131;SDS011;62090;52.330;9.104;2022-08-21T10:23:15;10.23;;;2.20;;
3131;SDS011;62090;52.330;9.104;2022-08-21T10:25:58;11.90;;;2.40;;
3131;SDS011;62090;52.330;9.104;2022-08-21T10:28:47;10.23;;;2.50;;
3131;SDS011;62090;52.330;9.104;2022-08-21T10:31:29;12.93;;;2.60;;
3131;SDS011;62090;52.330;9.104;2022-08-21T10:34:11;7.90;;;2.37;;
3131;SDS011;62090;52.330;9.104;2022-08-21T10:36:57;6.17;;;2.23;;
3131;SDS011;62090;52.330;9.104;2022-08-21T10:39:43;7.17;;;2.00;;
3131;SDS011;62090;52.330;9.104;2022-08-21T10:42:25;8.53;;;2.60;;
3131;SDS011;62090;52.330;9.104;2022-08-21T10:45:07;7.90;;;1.70;;
3131;SDS011;62090;52.330;9.104;2022-08-21T10:47:47;7.73;;;2.13;;
3131;SDS011;62090;52.330;9.104;2022-08-21T10:50:26;12.10;;;2.23;;
3131;SDS011;62090;52.330;9.104;2022-08-21T10:53:05;5.97;;;2.00;;
3131;SDS011;62090;52.330;9.104;2022-08-21T10:55:46;12.73;;;2.70;;
3131;SDS011;62090;52.330;9.104;2022-08-21T10:58:22;10.97;;;2.10;;
3131;SDS011;62090;52.330;9.104;2022-08-21T11:00:57;11.40;;;2.17;;
3131;SDS011;62090;52.330;9.104;2022-08-21T11:03:38;5.83;;;2.43;;
3131;SDS011;62090;52.330;9.104;2022-08-21T11:06:11;9.17;;;2.50;;
3131;SDS011;62090;52.330;9.104;2022-08-21T11:08:45;7.90;;;1.80;;
3131;SDS011;62090;52.330;9.104;2022-08-21T11:11:19;8.07;;;2.07;;
3131;SDS011;62090;52.330;9.104;2022-08-21T11:14:00;3.93;;;1.73;;
3131;SDS011;62090;52.330;9.104;2022-08-21T11:16:37;5.20;;;2.53;;
3131;SDS011;62090;52.330;9.104;2022-08-21T11:19:15;5.63;;;2.00;;
3131;SDS011;62090;52.330;9.104;2022-08-21T11:21:51;8.33;;;1.93;;
3131;SDS011;62090;52.330;9.104;2022-08-21T11:24:29;9.67;;;1.80;;
3131;SDS011;62090;52.330;9.104;2022-08-21T11:27:03;7.30;;;2.73;;
3131;SDS011;62090;52.330;9.104;2022-08-21T11:29:39;10.33;;;2.97;;
3131;SDS011;62090;52.330;9.104;2022-08-21T11:32:25;10.50;;;2.10;;
3131;SDS011;62090;52.330;9.104;2022-08-21T11:35:17;7.60;;;2.30;;
3131;SDS011;62090;52.330;9.104;2022-08-21T11:37:55;9.53;;;2.40;;
3131;SDS011;62090;52.330;9.104;2022-08-21T11:40:44;10.07;;;2.40;;
3131;SDS011;62090;52.330;9.104;2022-08-21T11:43:27;8.17;;;1.80;;
3131;SDS011;62090;52.330;9.104;2022-08-21T11:46:10;7.37;;;2.20;;
3131;SDS011;62090;52.330;9.104;2022-08-21T11:48:48;5.90;;;1.70;;
3131;SDS011;62090;52.330;9.104;2022-08-21T11:51:39;5.80;;;1.70;;
3131;SDS011;62090;52.330;9.104;2022-08-21T11:54:16;8.53;;;2.37;;
3131;SDS011;62090;52.330;9.104;2022-08-21T11:56:54;4.60;;;2.20;;
3131;SDS011;62090;52.330;9.104;2022-08-21T11:59:30;7.63;;;2.00;;
3131;SDS011;62090;52.330;9.104;2022-08-21T12:02:07;6.80;;;2.20;;
3131;SDS011;62090;52.330;9.104;2022-08-21T12:04:43;5.30;;;2.03;;
3131;SDS011;62090;52.330;9.104;2022-08-21T12:07:28;7.67;;;2.90;;
3131;SDS011;62090;52.330;9.104;2022-08-21T12:10:01;12.53;;;2.10;;
3131;SDS011;62090;52.330;9.104;2022-08-21T12:12:34;9.83;;;2.10;;
3131;SDS011;62090;52.330;9.104;2022-08-21T12:15:23;3.47;;;1.77;;
3131;SDS011;62090;52.330;9.104;2022-08-21T12:17:59;6.40;;;2.27;;
3131;SDS011;62090;52.330;9.104;2022-08-21T12:20:35;4.13;;;2.37;;
3131;SDS011;62090;52.330;9.104;2022-08-21T12:23:27;4.93;;;1.63;;
3131;SDS011;62090;52.330;9.104;2022-08-21T12:26:03;6.20;;;2.10;;
3131;SDS011;62090;52.330;9.104;2022-08-21T12:28:43;3.13;;;1.73;;
3131;SDS011;62090;52.330;9.104;2022-08-21T12:31:19;4.83;;;1.60;;
3131;SDS011;62090;52.330;9.104;2022-08-21T12:33:57;6.33;;;2.47;;
3131;SDS011;62090;52.330;9.104;2022-08-21T12:36:34;6.65;;;2.10;;
3131;SDS011;62090;52.330;9.104;2022-08-21T12:39:14;7.60;;;1.93;;
3131;SDS011;62090;52.330;9.104;2022-08-21T12:41:49;7.93;;;3.00;;
3131;SDS011;62090;52.330;9.104;2022-08-21T12:44:28;11.10;;;3.13;;
3131;SDS011;62090;52.330;9.104;2022-08-21T12:47:05;7.67;;;2.33;;
3131;SDS011;62090;52.330;9.104;2022-08-21T12:49:44;11.27;;;2.30;;
3131;SDS011;62090;52.330;9.104;2022-08-21T12:52:22;7.70;;;2.17;;
3131;SDS011;62090;52.330;9.104;2022-08-21T12:54:56;4.90;;;2.23;;
3131;SDS011;62090;52.330;9.104;2022-08-21T12:57:26;5.80;;;2.20;;
3131;SDS011;62090;52.330;9.104;2022-08-21T12:59:58;13.77;;;3.37;;
3131;SDS011;62090;52.330;9.104;2022-08-21T13:02:30;2.93;;;1.63;;
3131;SDS011;62090;52.330;9.104;2022-08-21T13:05:02;8.20;;;2.03;;
3131;SDS011;62090;52.330;9.104;2022-08-21T13:07:34;9.20;;;2.60;;
3131;SDS011;62090;52.330;9.104;2022-08-21T13:10:21;7.40;;;2.33;;
3131;SDS011;62090;52.330;9.104;2022-08-21T13:12:54;4.70;;;1.87;;
3131;SDS011;62090;52.330;9.104;2022-08-21T13:15:27;5.70;;;2.07;;
3131;SDS011;62090;52.330;9.104;2022-08-21T13:17:59;6.80;;;2.30;;
3131;SDS011;62090;52.330;9.104;2022-08-21T13:20:33;4.90;;;2.10;;
3131;SDS011;62090;52.330;9.104;2022-08-21T13:23:06;4.10;;;1.87;;
3131;SDS011;62090;52.330;9.104;2022-08-21T13:25:54;11.00;;;2.23;;
3131;SDS011;62090;52.330;9.104;2022-08-21T13:28:31;4.80;;;1.80;;
3131;SDS011;62090;52.330;9.104;2022-08-21T13:31:06;5.30;;;2.07;;
3131;SDS011;62090;52.330;9.104;2022-08-21T13:33:43;5.23;;;2.40;;
3131;SDS011;62090;52.330;9.104;2022-08-21T13:36:14;3.83;;;1.70;;
3131;SDS011;62090;52.330;9.104;2022-08-21T13:38:48;2.93;;;1.50;;
3131;SDS011;62090;52.330;9.104;2022-08-21T13:41:24;8.60;;;1.90;;
3131;SDS011;62090;52.330;9.104;2022-08-21T13:43:59;8.33;;;1.90;;
3131;SDS011;62090;52.330;9.104;2022-08-21T13:46:33;4.40;;;1.93;;
3131;SDS011;62090;52.330;9.104;2022-08-21T13:49:05;4.93;;;1.80;;
3131;SDS011;62090;52.330;9.104;2022-08-21T13:51:36;8.30;;;2.40;;
3131;SDS011;62090;52.330;9.104;2022-08-21T13:54:13;8.13;;;2.20;;
3131;SDS011;62090;52.330;9.104;2022-08-21T13:56:47;8.17;;;2.10;;
3131;SDS011;62090;52.330;9.104;2022-08-21T13:59:24;16.67;;;2.33;;
3131;SDS011;62090;52.330;9.104;2022-08-21T14:01:57;4.47;;;2.00;;
3131;SDS011;62090;52.330;9.104;2022-08-21T14:04:33;5.57;;;2.20;;
3131;SDS011;62090;52.330;9.104;2022-08-21T14:07:13;5.83;;;2.20;;
3131;SDS011;62090;52.330;9.104;2022-08-21T14:09:45;6.90;;;2.30;;
3131;SDS011;62090;52.330;9.104;2022-08-21T14:12:24;8.37;;;2.10;;
3131;SDS011;62090;52.330;9.104;2022-08-21T14:14:58;6.83;;;2.20;;
3131;SDS011;62090;52.330;9.104;2022-08-21T14:17:40;4.80;;;2.33;;
3131;SDS011;62090;52.330;9.104;2022-08-21T14:20:12;5.60;;;1.70;;
3131;SDS011;62090;52.330;9.104;2022-08-21T14:22:56;7.30;;;2.13;;
3131;SDS011;62090;52.330;9.104;2022-08-21T14:25:27;10.07;;;2.07;;
3131;SDS011;62090;52.330;9.104;2022-08-21T14:28:11;7.67;;;2.37;;
3131;SDS011;62090;52.330;9.104;2022-08-21T14:30:52;5.80;;;2.53;;
3131;SDS011;62090;52.330;9.104;2022-08-21T14:33:25;5.78;;;2.33;;
3131;SDS011;62090;52.330;9.104;2022-08-21T14:35:57;7.23;;;2.27;;
3131;SDS011;62090;52.330;9.104;2022-08-21T14:38:28;7.23;;;2.60;;
3131;SDS011;62090;52.330;9.104;2022-08-21T14:40:59;8.13;;;2.30;;
3131;SDS011;62090;52.330;9.104;2022-08-21T14:43:45;5.70;;;2.13;;
3131;SDS011;62090;52.330;9.104;2022-08-21T14:46:32;9.70;;;2.57;;
3131;SDS011;62090;52.330;9.104;2022-08-21T14:49:21;8.37;;;2.40;;
3131;SDS011;62090;52.330;9.104;2022-08-21T14:51:53;8.33;;;2.70;;
3131;SDS011;62090;52.330;9.104;2022-08-21T14:54:24;11.27;;;2.50;;
3131;SDS011;62090;52.330;9.104;2022-08-21T14:56:57;8.97;;;2.63;;
3131;SDS011;62090;52.330;9.104;2022-08-21T14:59:33;5.00;;;2.47;;
3131;SDS011;62090;52.330;9.104;2022-08-21T15:02:04;3.77;;;2.00;;
3131;SDS011;62090;52.330;9.104;2022-08-21T15:04:35;8.80;;;2.90;;
3131;SDS011;62090;52.330;9.104;2022-08-21T15:07:05;12.13;;;2.87;;
3131;SDS011;62090;52.330;9.104;2022-08-21T15:09:34;6.80;;;2.23;;
3131;SDS011;62090;52.330;9.104;2022-08-21T15:12:04;6.07;;;2.53;;
3131;SDS011;62090;52.330;9.104;2022-08-21T15:14:40;7.73;;;2.33;;
3131;SDS011;62090;52.330;9.104;2022-08-21T15:17:11;4.93;;;2.10;;
3131;SDS011;62090;52.330;9.104;2022-08-21T15:19:41;5.37;;;2.30;;
3131;SDS011;62090;52.330;9.104;2022-08-21T15:22:10;5.90;;;2.30;;
3131;SDS011;62090;52.330;9.104;2022-08-21T15:24:44;5.93;;;2.30;;
3131;SDS011;62090;52.330;9.104;2022-08-21T15:27:14;5.70;;;2.50;;
3131;SDS011;62090;52.330;9.104;2022-08-21T15:29:48;6.80;;;2.80;;
3131;SDS011;62090;52.330;9.104;2022-08-21T15:32:20;5.30;;;1.73;;
3131;SDS011;62090;52.330;9.104;2022-08-21T15:34:53;4.73;;;1.93;;